Time;durP1;ratioP1;P1;durP2;ratioP2;P2;SDS_P1;SDS_P2;PMS_P1;PMS_P2;Temp;Humidity;BMP_temperature;BMP_pressure;BME280_temperature;BME280_humidity;BME280_pressure;Samples;Min_cycle;Max_cycle;Signal;HPM_P1;HPM_P2
2022/04/14 00:01:28;;;;;;;14.60;7.22;;;14.00;99.90;;;;;;4917978;29;20333;-81
2022/04/14 00:03:53;;;;;;;13.40;7.55;;;13.90;99.90;;;;;;4916825;29;20269;-81
2022/04/14 00:06:19;;;;;;;17.90;8.27;;;13.90;99.90;;;;;;4917749;29;20221;-82
2022/04/14 00:08:45;;;;;;;16.30;7.90;;;14.00;99.90;;;;;;4916234;29;20703;-82
2022/04/14 00:11:11;;;;;;;14.38;8.57;;;13.90;99.90;;;;;;4917953;29;20606;-82
2022/04/14 00:13:36;;;;;;;16.75;8.35;;;13.90;99.90;;;;;;4917869;29;20625;-82
2022/04/14 00:16:02;;;;;;;13.05;8.02;;;13.90;99.90;;;;;;4916390;29;20506;-82
2022/04/14 00:18:28;;;;;;;14.57;7.78;;;13.90;99.90;;;;;;4917729;29;20174;-82
2022/04/14 00:20:53;;;;;;;15.77;8.27;;;13.90;99.90;;;;;;4917553;29;20187;-82
2022/04/14 00:23:19;;;;;;;14.80;7.93;;;14.00;99.90;;;;;;4915954;29;20673;-81
2022/04/14 00:25:44;;;;;;;15.90;7.90;;;13.90;99.90;;;;;;4916533;29;20246;-80
2022/04/14 00:28:10;;;;;;;13.98;7.80;;;13.90;99.90;;;;;;4916561;29;20623;-82
2022/04/14 00:30:36;;;;;;;10.38;6.82;;;13.80;99.90;;;;;;4916496;29;20194;-82
2022/04/14 00:33:01;;;;;;;15.07;7.93;;;13.80;99.90;;;;;;4917756;29;20174;-81
2022/04/14 00:35:27;;;;;;;11.23;6.80;;;13.80;99.90;;;;;;4917751;29;20519;-82
2022/04/14 00:37:53;;;;;;;9.50;5.90;;;13.80;99.90;;;;;;4917009;29;20245;-82
2022/04/14 00:40:18;;;;;;;7.50;4.20;;;13.70;99.90;;;;;;4916337;29;20245;-81
2022/04/14 00:42:44;;;;;;;8.98;4.70;;;13.80;99.90;;;;;;4917530;29;20179;-81
2022/04/14 00:45:10;;;;;;;7.85;4.38;;;13.80;99.90;;;;;;4920469;29;20198;-82
2022/04/14 00:47:36;;;;;;;6.88;4.28;;;13.70;99.90;;;;;;4920018;29;20198;-82
2022/04/14 00:50:03;;;;;;;8.82;4.15;;;13.60;99.90;;;;;;4919654;29;20289;-81
2022/04/14 00:52:29;;;;;;;10.48;4.03;;;13.60;99.90;;;;;;4919529;29;20193;-82
2022/04/14 00:54:54;;;;;;;10.25;3.85;;;13.50;99.90;;;;;;4920045;29;20179;-82
2022/04/14 00:57:20;;;;;;;8.10;3.58;;;13.50;99.90;;;;;;4921123;29;20525;-82
2022/04/14 00:59:46;;;;;;;6.97;3.92;;;13.50;99.90;;;;;;4921043;29;20183;-82
2022/04/14 01:02:12;;;;;;;11.63;4.20;;;13.50;99.90;;;;;;4921048;29;20606;-82
2022/04/14 01:04:38;;;;;;;6.00;3.28;;;13.50;99.90;;;;;;4918930;29;20185;-81
2022/04/14 01:07:08;;;;;;;8.63;3.47;;;13.50;99.90;;;;;;4919346;29;20190;-82
2022/04/14 01:09:36;;;;;;;6.70;3.25;;;13.40;99.90;;;;;;4919590;29;20179;-82
2022/04/14 01:12:05;;;;;;;7.28;3.72;;;13.40;99.90;;;;;;4920730;29;20175;-82
2022/04/14 01:14:33;;;;;;;5.95;3.30;;;13.40;99.90;;;;;;4920820;29;20167;-81
2022/04/14 01:17:04;;;;;;;6.60;3.47;;;13.40;99.90;;;;;;4920719;29;20178;-82
2022/04/14 01:19:30;;;;;;;7.68;3.38;;;13.40;99.90;;;;;;4920559;29;20190;-82
2022/04/14 01:22:07;;;;;;;5.60;3.30;;;13.40;99.90;;;;;;4920659;29;20190;-82
2022/04/14 01:24:34;;;;;;;7.50;3.20;;;13.40;99.90;;;;;;4920567;29;20253;-82
2022/04/14 01:27:03;;;;;;;6.07;3.25;;;13.40;99.90;;;;;;4920480;29;20229;-82
2022/04/14 01:29:29;;;;;;;7.03;3.35;;;13.40;99.90;;;;;;4919056;29;20186;-82
2022/04/14 01:31:57;;;;;;;7.30;3.65;;;13.30;99.90;;;;;;4920181;29;20178;-82
2022/04/14 01:34:23;;;;;;;6.20;3.10;;;13.30;99.90;;;;;;4920514;29;20174;-82
2022/04/14 01:36:48;;;;;;;8.18;3.50;;;13.30;99.90;;;;;;4920346;29;20178;-82
2022/04/14 01:39:14;;;;;;;9.20;4.03;;;13.30;99.90;;;;;;4920004;29;20455;-82
2022/04/14 01:41:41;;;;;;;9.05;4.13;;;13.20;99.90;;;;;;4918828;29;20178;-82
2022/04/14 01:44:08;;;;;;;6.53;3.72;;;13.20;99.90;;;;;;4920090;29;20167;-82
2022/04/14 01:46:34;;;;;;;7.00;3.58;;;13.20;99.90;;;;;;4918824;29;20210;-82
2022/04/14 01:49:00;;;;;;;6.85;3.85;;;13.10;99.90;;;;;;4919699;29;20218;-82
2022/04/14 01:51:29;;;;;;;7.72;3.70;;;13.10;99.90;;;;;;4919940;29;20169;-82
2022/04/14 01:53:55;;;;;;;8.52;3.97;;;13.00;99.90;;;;;;4918551;29;20183;-82
2022/04/14 01:56:21;;;;;;;4.40;3.15;;;13.00;99.90;;;;;;4919703;29;20677;-82
2022/04/14 01:58:54;;;;;;;7.00;4.20;;;13.00;99.90;;;;;;4918541;29;20282;-82
2022/04/14 02:01:20;;;;;;;8.68;4.00;;;12.90;99.90;;;;;;4919658;29;20178;-82
2022/04/14 02:03:46;;;;;;;7.95;4.00;;;12.90;99.90;;;;;;4918735;29;20234;-83
2022/04/14 02:06:13;;;;;;;8.32;4.15;;;12.80;99.90;;;;;;4919837;29;20233;-82
2022/04/14 02:08:39;;;;;;;6.57;3.85;;;12.80;99.90;;;;;;4918051;29;20182;-82
2022/04/14 02:11:04;;;;;;;9.15;3.88;;;12.80;99.90;;;;;;4919699;29;20252;-82
2022/04/14 02:13:31;;;;;;;8.65;4.28;;;12.80;99.90;;;;;;4917992;29;20704;-82
2022/04/14 02:15:57;;;;;;;9.40;4.50;;;12.80;99.90;;;;;;4919588;29;20178;-82
2022/04/14 02:18:23;;;;;;;10.68;4.85;;;12.80;99.90;;;;;;4918333;29;20186;-82
2022/04/14 02:20:49;;;;;;;7.63;4.13;;;12.80;99.90;;;;;;4918480;29;20189;-82
2022/04/14 02:23:15;;;;;;;9.27;5.18;;;12.80;99.90;;;;;;4917906;29;20193;-82
2022/04/14 02:25:40;;;;;;;10.15;4.68;;;12.80;99.90;;;;;;4917636;29;20261;-82
2022/04/14 02:28:06;;;;;;;9.55;5.25;;;12.80;99.90;;;;;;4917945;29;20179;-82
2022/04/14 02:30:35;;;;;;;8.07;4.15;;;12.80;99.90;;;;;;4919355;29;20626;-82
2022/04/14 02:33:01;;;;;;;6.60;3.85;;;12.80;99.90;;;;;;4919315;29;20600;-82
2022/04/14 02:35:27;;;;;;;11.20;4.50;;;12.80;99.90;;;;;;4919406;29;20564;-82
2022/04/14 02:37:53;;;;;;;6.40;3.92;;;12.90;99.90;;;;;;4917711;29;20281;-82
2022/04/14 02:40:19;;;;;;;7.88;4.20;;;13.00;99.90;;;;;;4917929;29;20281;-82
2022/04/14 02:42:46;;;;;;;5.85;3.85;;;13.00;99.90;;;;;;4917349;29;20203;-82
2022/04/14 02:45:12;;;;;;;6.80;4.30;;;13.10;99.90;;;;;;4918970;29;20205;-82
2022/04/14 02:47:38;;;;;;;8.15;3.85;;;13.10;99.90;;;;;;4917302;29;20186;-82
2022/04/14 02:50:05;;;;;;;13.02;4.30;;;13.10;99.90;;;;;;4917601;29;20234;-82
2022/04/14 02:52:31;;;;;;;8.40;4.45;;;13.10;99.90;;;;;;4918683;29;20586;-82
2022/04/14 02:54:56;;;;;;;9.93;4.75;;;13.10;99.90;;;;;;4918807;29;20253;-82
2022/04/14 02:57:22;;;;;;;8.02;4.85;;;13.10;99.90;;;;;;4918830;29;20174;-82
2022/04/14 02:59:48;;;;;;;9.68;5.00;;;13.00;99.90;;;;;;4917509;29;20656;-82
2022/04/14 03:02:13;;;;;;;9.40;4.75;;;13.00;99.90;;;;;;4918642;29;20175;-82
2022/04/14 03:04:39;;;;;;;8.45;5.25;;;13.00;99.90;;;;;;4918483;29;20181;-83
2022/04/14 03:07:05;;;;;;;8.88;4.80;;;13.10;99.90;;;;;;4916587;29;20191;-82
2022/04/14 03:09:31;;;;;;;10.57;5.68;;;13.10;99.90;;;;;;4917128;29;20183;-83
2022/04/14 03:11:56;;;;;;;8.77;5.03;;;13.10;99.90;;;;;;4918481;29;20174;-82
2022/04/14 03:14:22;;;;;;;8.00;5.07;;;13.00;99.90;;;;;;4918631;29;20175;-83
2022/04/14 03:16:48;;;;;;;10.18;4.80;;;13.00;99.90;;;;;;4918753;29;20710;-82
2022/04/14 03:19:13;;;;;;;7.57;5.13;;;13.00;99.90;;;;;;4918454;29;20178;-82
2022/04/14 03:21:39;;;;;;;10.38;5.10;;;13.00;99.90;;;;;;4918574;29;20178;-83
2022/04/14 03:24:05;;;;;;;8.85;5.18;;;13.10;99.90;;;;;;4918291;29;20253;-82
2022/04/14 03:26:30;;;;;;;7.35;4.82;;;13.10;99.90;;;;;;4918388;29;20248;-82
2022/04/14 03:28:56;;;;;;;10.25;4.85;;;13.00;99.90;;;;;;4918358;29;20174;-83
2022/04/14 03:31:22;;;;;;;11.00;4.85;;;13.00;99.90;;;;;;4918375;29;20182;-82
2022/04/14 03:33:47;;;;;;;12.70;5.05;;;13.00;99.90;;;;;;4918483;29;20179;-82
2022/04/14 03:36:13;;;;;;;8.10;4.72;;;12.90;99.90;;;;;;4917113;29;20201;-82
2022/04/14 03:38:39;;;;;;;9.77;5.43;;;12.90;99.90;;;;;;4917885;29;20506;-82
2022/04/14 03:41:06;;;;;;;9.85;4.60;;;12.90;99.90;;;;;;4916914;29;20182;-82
2022/04/14 03:43:35;;;;;;;12.25;5.18;;;12.90;99.90;;;;;;4916907;29;20187;-83
2022/04/14 03:46:02;;;;;;;10.95;5.00;;;12.90;99.90;;;;;;4918090;29;20202;-83
2022/04/14 03:48:28;;;;;;;9.57;5.20;;;12.90;99.90;;;;;;4916786;29;20214;-83
2022/04/14 03:50:54;;;;;;;7.28;4.40;;;12.90;99.90;;;;;;4916863;29;20712;-82
2022/04/14 03:53:20;;;;;;;7.40;4.82;;;12.90;99.90;;;;;;4917698;29;20178;-82
2022/04/14 03:55:48;;;;;;;8.65;5.13;;;12.90;99.90;;;;;;4918111;29;20262;-83
2022/04/14 03:58:15;;;;;;;10.55;5.72;;;13.00;99.90;;;;;;4917872;29;20181;-82
2022/04/14 04:00:41;;;;;;;7.57;4.80;;;13.00;99.90;;;;;;4916722;29;20618;-82
2022/04/14 04:03:14;;;;;;;9.70;5.55;;;13.00;99.90;;;;;;4917976;29;20179;-82
2022/04/14 04:05:39;;;;;;;7.90;5.43;;;13.00;99.90;;;;;;4918066;29;20207;-82
2022/04/14 04:08:06;;;;;;;12.50;5.35;;;13.00;99.90;;;;;;4917428;29;20238;-83
2022/04/14 04:10:32;;;;;;;9.50;5.25;;;12.90;99.90;;;;;;4916764;29;20182;-82
2022/04/14 04:12:57;;;;;;;9.30;5.75;;;13.00;99.90;;;;;;4917803;29;20179;-82
2022/04/14 04:15:23;;;;;;;8.35;5.50;;;13.00;99.90;;;;;;4916316;29;20201;-82
2022/04/14 04:17:51;;;;;;;10.85;5.90;;;13.00;99.90;;;;;;4918627;29;20185;-82
2022/04/14 04:20:18;;;;;;;9.88;5.85;;;13.00;99.90;;;;;;4920413;29;20186;-82
2022/04/14 04:22:44;;;;;;;9.15;5.88;;;13.00;99.90;;;;;;4921205;29;20181;-82
2022/04/14 04:25:10;;;;;;;12.23;6.40;;;13.00;99.90;;;;;;4920701;29;20280;-82
2022/04/14 04:27:36;;;;;;;10.80;5.90;;;13.00;99.90;;;;;;4920311;29;20183;-83
2022/04/14 04:30:06;;;;;;;11.38;5.78;;;13.00;99.90;;;;;;4921678;29;20171;-82
2022/04/14 04:32:34;;;;;;;12.55;6.30;;;13.00;99.90;;;;;;4921540;29;20221;-82
2022/04/14 04:35:06;;;;;;;11.43;6.78;;;13.00;99.90;;;;;;4921464;29;20167;-82
2022/04/14 04:37:32;;;;;;;15.27;7.00;;;13.00;99.90;;;;;;4921145;29;20175;-83
2022/04/14 04:39:58;;;;;;;10.77;6.97;;;12.90;99.90;;;;;;4921209;29;20265;-82
2022/04/14 04:42:24;;;;;;;11.32;6.63;;;12.90;99.90;;;;;;4919985;29;20191;-82
2022/04/14 04:44:50;;;;;;;13.80;6.63;;;12.90;99.90;;;;;;4921196;29;20384;-82
2022/04/14 04:47:16;;;;;;;10.18;6.68;;;12.90;99.90;;;;;;4919802;29;20243;-82
2022/04/14 04:49:42;;;;;;;11.05;6.65;;;12.90;99.90;;;;;;4920625;29;20223;-82
2022/04/14 04:52:08;;;;;;;8.55;6.57;;;12.90;99.90;;;;;;4919791;29;20265;-82
2022/04/14 04:54:34;;;;;;;9.38;6.30;;;12.90;99.90;;;;;;4921065;29;20549;-82
2022/04/14 04:57:00;;;;;;;9.60;6.28;;;12.90;99.90;;;;;;4921016;29;20265;-82
2022/04/14 04:59:25;;;;;;;10.85;6.68;;;12.90;99.90;;;;;;4919731;29;20258;-82
2022/04/14 05:01:52;;;;;;;9.75;6.82;;;12.90;99.90;;;;;;4921012;29;20179;-82
2022/04/14 05:04:18;;;;;;;11.80;6.72;;;12.80;99.90;;;;;;4920706;29;20197;-82
2022/04/14 05:06:43;;;;;;;10.02;5.43;;;12.80;99.90;;;;;;4919891;29;20217;-82
2022/04/14 05:09:09;;;;;;;10.63;5.80;;;12.80;99.90;;;;;;4918945;29;20532;-82
2022/04/14 05:11:35;;;;;;;11.63;6.53;;;12.80;99.90;;;;;;4918561;29;20193;-82
2022/04/14 05:14:02;;;;;;;10.57;6.15;;;12.70;99.90;;;;;;4918545;29;20510;-82
2022/04/14 05:16:28;;;;;;;10.80;5.60;;;12.70;99.90;;;;;;4918971;29;20245;-81
2022/04/14 05:18:54;;;;;;;8.95;5.68;;;12.80;99.90;;;;;;4920511;29;20598;-82
2022/04/14 05:21:19;;;;;;;9.68;6.20;;;12.80;99.90;;;;;;4920588;29;20226;-83
2022/04/14 05:23:45;;;;;;;8.50;5.57;;;12.80;99.90;;;;;;4919241;29;20182;-82
2022/04/14 05:26:11;;;;;;;8.07;5.82;;;12.70;99.90;;;;;;4920603;29;20202;-83
2022/04/14 05:28:36;;;;;;;11.82;6.75;;;12.70;99.90;;;;;;4920482;29;20178;-82
2022/04/14 05:31:02;;;;;;;8.15;5.78;;;12.80;99.90;;;;;;4919960;29;20253;-82
2022/04/14 05:33:28;;;;;;;8.45;5.35;;;12.80;99.90;;;;;;4920215;29;20558;-81
2022/04/14 05:35:54;;;;;;;9.13;5.78;;;12.80;99.90;;;;;;4919268;29;20190;-82
2022/04/14 05:38:20;;;;;;;14.07;5.90;;;12.80;99.90;;;;;;4920026;29;20206;-82
2022/04/14 05:40:46;;;;;;;11.70;6.55;;;12.80;99.90;;;;;;4919156;29;20294;-81
2022/04/14 05:43:18;;;;;;;12.90;6.20;;;12.80;99.90;;;;;;4920413;29;20175;-81
2022/04/14 05:45:47;;;;;;;10.70;6.55;;;12.80;99.90;;;;;;4920152;29;20257;-82
2022/04/14 05:48:14;;;;;;;9.55;5.53;;;12.80;99.90;;;;;;4920159;29;20178;-81
2022/04/14 05:50:41;;;;;;;9.93;6.45;;;12.80;99.90;;;;;;4920164;29;20226;-82
2022/04/14 05:53:06;;;;;;;11.57;6.40;;;12.80;99.90;;;;;;4919660;29;20179;-82
2022/04/14 05:55:32;;;;;;;7.03;5.43;;;12.80;99.90;;;;;;4918943;29;20182;-81
2022/04/14 05:57:58;;;;;;;9.27;5.88;;;12.80;99.90;;;;;;4920050;29;20207;-83
2022/04/14 06:00:23;;;;;;;8.65;5.68;;;12.80;99.90;;;;;;4919933;29;20190;-82
2022/04/14 06:02:49;;;;;;;9.35;5.53;;;12.70;99.90;;;;;;4919823;29;20566;-81
2022/04/14 06:05:15;;;;;;;9.35;6.10;;;12.80;99.90;;;;;;4918655;29;20595;-82
2022/04/14 06:07:40;;;;;;;11.80;6.00;;;12.80;99.90;;;;;;4918308;29;20566;-82
2022/04/14 06:10:06;;;;;;;8.65;5.90;;;12.70;99.90;;;;;;4919775;29;20177;-82
2022/04/14 06:12:32;;;;;;;9.25;5.55;;;12.70;99.90;;;;;;4919558;29;20183;-82
2022/04/14 06:14:57;;;;;;;9.27;5.90;;;12.70;99.90;;;;;;4919622;29;20167;-82
2022/04/14 06:17:23;;;;;;;11.77;6.60;;;12.70;99.90;;;;;;4919715;29;20234;-82
2022/04/14 06:19:49;;;;;;;7.63;5.82;;;12.60;99.90;;;;;;4919655;29;20261;-82
2022/04/14 06:22:14;;;;;;;13.52;6.63;;;12.60;99.90;;;;;;4919310;29;20269;-81
2022/04/14 06:24:40;;;;;;;11.35;6.90;;;12.60;99.90;;;;;;4919580;29;20182;-81
2022/04/14 06:27:06;;;;;;;10.73;6.53;;;12.50;99.90;;;;;;4918422;29;20187;-81
2022/04/14 06:29:32;;;;;;;10.27;6.60;;;12.50;99.90;;;;;;4919265;29;20178;-80
2022/04/14 06:31:57;;;;;;;11.55;7.22;;;12.50;99.90;;;;;;4918031;29;20266;-80
2022/04/14 06:34:23;;;;;;;13.98;7.50;;;12.50;99.90;;;;;;4919541;29;20513;-80
2022/04/14 06:36:49;;;;;;;14.00;7.70;;;12.50;99.90;;;;;;4919564;29;20166;-81
2022/04/14 06:39:15;;;;;;;12.98;8.07;;;12.60;99.90;;;;;;4917727;29;20195;-81
2022/04/14 06:41:41;;;;;;;10.57;7.32;;;12.60;99.90;;;;;;4918465;29;20179;-81
2022/04/14 06:44:07;;;;;;;14.55;8.63;;;12.60;99.90;;;;;;4919169;29;20648;-81
2022/04/14 06:46:33;;;;;;;14.48;7.70;;;12.60;99.90;;;;;;4917526;29;20214;-80
2022/04/14 06:48:59;;;;;;;11.65;7.80;;;12.60;99.90;;;;;;4918888;29;20786;-80
2022/04/14 06:51:24;;;;;;;10.45;7.90;;;12.70;99.90;;;;;;4919161;29;20179;-80
2022/04/14 06:53:50;;;;;;;12.63;8.85;;;12.60;99.90;;;;;;4919046;29;20198;-81
2022/04/14 06:56:16;;;;;;;11.05;8.30;;;12.70;99.90;;;;;;4919121;29;20167;-80
2022/04/14 06:58:42;;;;;;;12.02;7.70;;;12.70;99.90;;;;;;4918857;29;20185;-80
2022/04/14 07:01:08;;;;;;;10.90;8.23;;;12.70;99.90;;;;;;4919217;29;20183;-79
2022/04/14 07:03:35;;;;;;;15.85;8.40;;;12.70;99.90;;;;;;4918815;29;20179;-80
2022/04/14 07:06:01;;;;;;;12.30;7.68;;;12.70;99.90;;;;;;4918846;29;20591;-80
2022/04/14 07:08:27;;;;;;;13.65;8.40;;;12.70;99.90;;;;;;4918514;29;20183;-80
2022/04/14 07:10:54;;;;;;;11.18;7.60;;;12.70;99.90;;;;;;4918754;29;20175;-80
2022/04/14 07:13:20;;;;;;;13.10;8.82;;;12.80;99.90;;;;;;4918684;29;20181;-80
2022/04/14 07:15:46;;;;;;;13.23;9.20;;;12.70;99.90;;;;;;4917409;29;20174;-80
2022/04/14 07:18:12;;;;;;;14.13;8.63;;;12.80;99.90;;;;;;4917298;29;20174;-81
2022/04/14 07:20:38;;;;;;;13.00;9.85;;;12.80;99.90;;;;;;4918694;29;20183;-81
2022/04/14 07:23:05;;;;;;;16.17;9.55;;;12.70;99.90;;;;;;4918499;29;20175;-80
2022/04/14 07:25:33;;;;;;;13.30;9.85;;;12.80;99.90;;;;;;4918616;29;20341;-80
2022/04/14 07:28:00;;;;;;;15.25;10.13;;;12.70;99.90;;;;;;4917154;29;20179;-80
2022/04/14 07:30:26;;;;;;;14.95;10.02;;;12.70;99.90;;;;;;4918672;29;20606;-81
2022/04/14 07:32:53;;;;;;;15.07;10.27;;;12.70;99.90;;;;;;4918243;29;20576;-81
2022/04/14 07:35:22;;;;;;;14.77;11.07;;;12.60;99.90;;;;;;4918583;29;20166;-81
2022/04/14 07:37:49;;;;;;;17.80;11.02;;;12.70;99.90;;;;;;4916875;29;20194;-81
2022/04/14 07:40:15;;;;;;;16.42;10.82;;;12.70;99.90;;;;;;4918337;29;20599;-80
2022/04/14 07:42:43;;;;;;;15.95;11.23;;;12.70;99.90;;;;;;4918139;29;20174;-80
2022/04/14 07:45:11;;;;;;;15.60;10.43;;;12.70;99.90;;;;;;4916955;29;20206;-81
2022/04/14 07:47:41;;;;;;;14.95;10.38;;;12.70;99.90;;;;;;4918365;29;20235;-81
2022/04/14 07:50:11;;;;;;;14.63;10.38;;;12.70;99.90;;;;;;4916884;29;20257;-80
2022/04/14 07:52:59;;;;;;;15.23;10.90;;;12.80;99.90;;;;;;4917550;29;20182;-80
2022/04/14 07:55:30;;;;;;;18.27;11.85;;;12.80;99.90;;;;;;4917029;29;20278;-80
2022/04/14 07:57:58;;;;;;;14.02;10.40;;;12.80;99.90;;;;;;4918139;29;20198;-80
2022/04/14 08:00:26;;;;;;;14.88;10.85;;;12.90;99.90;;;;;;4916939;29;20277;-80
2022/04/14 08:02:58;;;;;;;14.98;10.88;;;12.90;99.90;;;;;;4916974;29;20183;-81
2022/04/14 08:05:37;;;;;;;15.88;10.63;;;12.90;99.90;;;;;;4916766;29;20210;-80
2022/04/14 08:08:09;;;;;;;16.98;10.70;;;12.90;99.90;;;;;;4916554;29;20183;-80
2022/04/14 08:10:35;;;;;;;18.35;11.65;;;12.90;99.90;;;;;;4918178;29;20167;-80
2022/04/14 08:13:02;;;;;;;16.02;10.98;;;12.90;99.90;;;;;;4916706;29;20193;-80
2022/04/14 08:15:29;;;;;;;14.95;11.32;;;13.00;99.90;;;;;;4918012;29;20183;-81
2022/04/14 08:17:55;;;;;;;14.10;11.68;;;13.00;99.90;;;;;;4917835;29;20618;-81
2022/04/14 08:20:21;;;;;;;16.20;12.07;;;13.00;99.90;;;;;;4917937;29;20262;-81
2022/04/14 08:22:55;;;;;;;16.15;11.68;;;13.00;99.90;;;;;;4917791;29;20175;-80
2022/04/14 08:25:29;;;;;;;16.02;12.60;;;13.00;99.90;;;;;;4917878;29;20198;-81
2022/04/14 08:27:56;;;;;;;18.90;12.88;;;13.10;99.90;;;;;;4916883;29;20633;-81
2022/04/14 08:30:23;;;;;;;16.58;13.23;;;13.10;99.90;;;;;;4916610;29;20193;-81
2022/04/14 08:32:50;;;;;;;18.05;13.52;;;13.10;99.90;;;;;;4916827;29;20281;-81
2022/04/14 08:35:17;;;;;;;21.92;14.15;;;13.20;99.90;;;;;;4917826;29;20641;-80
2022/04/14 08:37:43;;;;;;;18.10;13.48;;;13.20;99.90;;;;;;4917560;29;20227;-80
2022/04/14 08:40:12;;;;;;;16.10;12.95;;;13.20;99.90;;;;;;4917862;29;20170;-80
2022/04/14 08:42:40;;;;;;;18.55;14.02;;;13.20;99.90;;;;;;4917717;29;20191;-80
2022/04/14 08:45:11;;;;;;;19.92;14.07;;;13.20;99.90;;;;;;4916374;29;20225;-80
2022/04/14 08:47:41;;;;;;;19.27;14.15;;;13.20;99.90;;;;;;4917839;29;20170;-80
2022/04/14 08:50:10;;;;;;;21.02;15.00;;;13.20;99.90;;;;;;4917622;29;20215;-81
2022/04/14 08:52:37;;;;;;;20.42;15.30;;;13.20;99.90;;;;;;4917501;29;20687;-80
2022/04/14 08:55:05;;;;;;;21.73;15.70;;;13.20;99.90;;;;;;4917652;29;20211;-80
2022/04/14 08:57:32;;;;;;;22.58;16.15;;;13.30;99.90;;;;;;4917477;29;20562;-80
2022/04/14 08:59:59;;;;;;;21.63;15.80;;;13.40;99.90;;;;;;4917555;29;20175;-80
2022/04/14 09:02:27;;;;;;;21.63;15.57;;;13.40;99.90;;;;;;4917558;29;20182;-80
2022/04/14 09:04:55;;;;;;;24.73;16.65;;;13.50;99.90;;;;;;4918455;29;20251;-80
2022/04/14 09:07:21;;;;;;;23.65;16.52;;;13.50;99.90;;;;;;4919841;29;20214;-79
2022/04/14 09:09:47;;;;;;;20.35;15.82;;;13.50;99.90;;;;;;4920428;29;20186;-79
2022/04/14 09:12:13;;;;;;;22.73;15.82;;;13.60;99.90;;;;;;4920675;29;20175;-80
2022/04/14 09:14:39;;;;;;;24.35;16.13;;;13.60;99.90;;;;;;4920927;29;20554;-80
2022/04/14 09:17:06;;;;;;;24.85;17.27;;;13.70;99.90;;;;;;4921005;29;20217;-81
2022/04/14 09:19:34;;;;;;;21.45;15.85;;;13.70;99.90;;;;;;4920770;29;20178;-81
2022/04/14 09:22:04;;;;;;;25.98;17.33;;;13.80;99.90;;;;;;4920641;29;20309;-81
2022/04/14 09:24:44;;;;;;;22.77;16.17;;;13.90;99.90;;;;;;4919159;29;20210;-81
2022/04/14 09:27:22;;;;;;;21.63;16.55;;;14.00;99.90;;;;;;4920712;29;20309;-82
2022/04/14 09:29:48;;;;;;;22.30;15.95;;;14.00;99.90;;;;;;4920568;29;20201;-82
2022/04/14 09:32:27;;;;;;;21.70;15.93;;;14.00;99.90;;;;;;4920390;29;20634;-81
2022/04/14 09:34:53;;;;;;;22.35;17.08;;;14.10;99.90;;;;;;4920467;29;20253;-81
2022/04/14 09:37:20;;;;;;;19.58;15.95;;;14.10;99.90;;;;;;4920328;29;20246;-83
2022/04/14 09:39:56;;;;;;;25.70;16.50;;;14.10;99.90;;;;;;4920157;29;20202;-82
2022/04/14 09:42:24;;;;;;;23.20;15.30;;;14.10;99.90;;;;;;4920355;29;20489;-82
2022/04/14 09:44:51;;;;;;;23.45;15.48;;;14.10;99.90;;;;;;4919032;29;20201;-80
2022/04/14 09:47:39;;;;;;;23.38;16.52;;;14.10;99.90;;;;;;4919095;29;20179;-81
2022/04/14 09:50:24;;;;;;;22.73;16.25;;;14.10;99.90;;;;;;4919018;29;20672;-81
2022/04/14 09:52:57;;;;;;;21.83;16.42;;;14.10;99.90;;;;;;4918872;29;20182;-83
2022/04/14 09:55:23;;;;;;;26.17;15.13;;;14.10;99.90;;;;;;4920218;29;20189;-81
2022/04/14 09:58:07;;;;;;;21.58;15.23;;;14.10;99.90;;;;;;4920041;29;20170;-81
2022/04/14 10:00:41;;;;;;;21.65;15.45;;;14.10;99.90;;;;;;4918710;29;20186;-82
2022/04/14 10:03:15;;;;;;;22.40;14.60;;;14.10;99.90;;;;;;4920210;29;20159;-82
2022/04/14 10:05:43;;;;;;;23.73;15.05;;;14.10;99.90;;;;;;4918585;29;20262;-82
2022/04/14 10:08:09;;;;;;;20.88;14.77;;;14.10;99.90;;;;;;4919573;29;20681;-81
2022/04/14 10:10:37;;;;;;;20.73;14.05;;;14.20;99.90;;;;;;4919789;29;20187;-81
2022/04/14 10:13:09;;;;;;;18.25;13.90;;;14.10;99.90;;;;;;4918696;29;20220;-81
2022/04/14 10:15:37;;;;;;;20.02;14.30;;;14.10;99.90;;;;;;4919675;29;20179;-80
2022/04/14 10:18:11;;;;;;;19.23;14.13;;;14.10;99.90;;;;;;4919764;29;20163;-81
2022/04/14 10:20:39;;;;;;;18.40;13.50;;;14.10;99.90;;;;;;4918070;29;20190;-80
2022/04/14 10:23:07;;;;;;;18.92;13.25;;;14.10;99.90;;;;;;4917999;29;20399;-81
2022/04/14 10:25:37;;;;;;;19.30;13.70;;;14.20;99.90;;;;;;4918318;29;20202;-81
2022/04/14 10:28:08;;;;;;;20.05;13.70;;;14.10;99.90;;;;;;4918272;29;20201;-82
2022/04/14 10:30:34;;;;;;;19.95;12.40;;;14.10;99.90;;;;;;4919472;29;20241;-81
2022/04/14 10:33:00;;;;;;;20.95;13.55;;;14.10;99.90;;;;;;4919543;29;20182;-81
2022/04/14 10:35:28;;;;;;;20.15;14.60;;;14.10;99.90;;;;;;4919319;29;20202;-82
2022/04/14 10:38:07;;;;;;;22.80;14.55;;;14.10;99.90;;;;;;4919284;29;20491;-83
2022/04/14 10:40:36;;;;;;;20.38;13.57;;;14.10;99.90;;;;;;4918102;29;20250;-81
2022/04/14 10:43:07;;;;;;;19.42;14.48;;;14.10;99.90;;;;;;4919294;29;20253;-83
2022/04/14 10:45:53;;;;;;;18.83;12.88;;;14.20;99.90;;;;;;4919269;29;20582;-82
2022/04/14 10:48:32;;;;;;;21.58;13.88;;;14.20;99.90;;;;;;4919011;29;20163;-83
2022/04/14 10:51:24;;;;;;;23.50;14.30;;;14.20;99.90;;;;;;4919088;29;20562;-81
2022/04/14 10:54:05;;;;;;;21.08;12.70;;;14.20;99.90;;;;;;4917562;29;20602;-81
2022/04/14 10:56:33;;;;;;;16.23;11.48;;;14.20;99.90;;;;;;4917683;29;20190;-80
2022/04/14 10:59:00;;;;;;;20.38;13.00;;;14.10;99.90;;;;;;4919041;29;20170;-81
2022/04/14 11:01:48;;;;;;;19.65;13.13;;;14.20;99.90;;;;;;4919284;29;20183;-81
2022/04/14 11:04:33;;;;;;;16.90;12.45;;;14.20;99.90;;;;;;4937954;29;20305;-80
2022/04/14 11:07:06;;;;;;;18.40;12.32;;;14.30;99.90;;;;;;4937823;29;20203;-82
2022/04/14 11:09:50;;;;;;;22.08;13.70;;;14.30;99.90;;;;;;4918636;29;20178;-81
2022/04/14 11:12:25;;;;;;;22.77;13.77;;;14.50;99.90;;;;;;4918694;29;20698;-81
2022/04/14 11:15:03;;;;;;;20.08;13.88;;;14.60;99.90;;;;;;4918726;29;20209;-81
2022/04/14 11:17:37;;;;;;;20.02;13.70;;;14.70;99.90;;;;;;4917222;29;20569;-82
2022/04/14 11:20:30;;;;;;;20.95;13.25;;;14.80;99.90;;;;;;4917498;29;20193;-82
2022/04/14 11:23:12;;;;;;;17.88;12.68;;;14.90;99.90;;;;;;4903516;29;20652;-81
2022/04/14 11:25:49;;;;;;;17.92;12.45;;;15.10;99.90;;;;;;4918320;29;20230;-80
2022/04/14 11:28:22;;;;;;;18.92;12.30;;;15.10;99.90;;;;;;4918076;29;20171;-81
2022/04/14 11:30:53;;;;;;;16.60;12.55;;;15.30;99.90;;;;;;4918482;29;20564;-81
2022/04/14 11:33:33;;;;;;;19.98;12.63;;;15.50;99.90;;;;;;4918364;29;20170;-80
2022/04/14 11:36:22;;;;;;;21.45;13.63;;;15.60;99.90;;;;;;4918381;29;20167;-81
2022/04/14 11:38:51;;;;;;;17.73;13.02;;;15.70;99.90;;;;;;4914101;29;20187;-80
2022/04/14 11:41:43;;;;;;;16.20;13.93;;;15.70;99.90;;;;;;4899467;29;20175;-80
2022/04/14 11:44:32;;;;;;;18.30;13.25;;;15.80;99.90;;;;;;4898956;29;20179;-80
2022/04/14 11:47:00;;;;;;;21.73;14.02;;;15.90;99.90;;;;;;4888451;29;20670;-80
2022/04/14 11:49:29;;;;;;;17.67;13.07;;;15.70;99.90;;;;;;4899083;29;20636;-80
2022/04/14 11:51:57;;;;;;;18.80;14.10;;;15.70;99.90;;;;;;4899171;29;20182;-81
2022/04/14 11:54:35;;;;;;;17.77;12.95;;;15.60;99.90;;;;;;4897655;29;20183;-80
2022/04/14 11:57:13;;;;;;;18.75;13.52;;;15.50;99.90;;;;;;4897966;29;20502;-80
2022/04/14 11:59:45;;;;;;;18.10;13.07;;;15.40;99.90;;;;;;4899109;29;20206;-80
2022/04/14 12:02:18;;;;;;;19.05;13.60;;;15.50;99.90;;;;;;4898980;29;20207;-80
2022/04/14 12:04:51;;;;;;;18.77;14.20;;;15.50;99.90;;;;;;4899187;29;20168;-82
2022/04/14 12:07:18;;;;;;;21.60;14.93;;;15.60;99.90;;;;;;4899787;29;20518;-82
2022/04/14 12:09:45;;;;;;;19.17;14.27;;;15.70;99.90;;;;;;4916366;29;20182;-81
2022/04/14 12:12:12;;;;;;;17.48;14.18;;;15.90;99.90;;;;;;4917845;29;20226;-81
2022/04/14 12:14:43;;;;;;;18.77;14.85;;;16.10;99.90;;;;;;4917879;29;20175;-81
2022/04/14 12:17:09;;;;;;;19.73;13.82;;;16.30;99.90;;;;;;4916720;29;20274;-82
2022/04/14 12:19:41;;;;;;;17.65;13.32;;;16.50;99.90;;;;;;4917691;29;20182;-82
2022/04/14 12:22:07;;;;;;;18.50;13.25;;;16.50;99.90;;;;;;4917859;29;20517;-80
2022/04/14 12:24:34;;;;;;;19.45;13.00;;;16.70;99.90;;;;;;4917695;29;20174;-80
2022/04/14 12:27:00;;;;;;;18.73;14.02;;;17.00;99.90;;;;;;4917759;29;20202;-80
2022/04/14 12:29:26;;;;;;;16.58;12.48;;;17.20;99.90;;;;;;4916545;29;20186;-82
2022/04/14 12:31:57;;;;;;;15.60;12.63;;;17.10;99.90;;;;;;4916374;29;20306;-80
2022/04/14 12:34:23;;;;;;;17.17;13.32;;;16.80;99.90;;;;;;4917431;29;20238;-80
2022/04/14 12:36:49;;;;;;;21.27;14.77;;;16.70;99.90;;;;;;4917854;29;20212;-80
2022/04/14 12:39:20;;;;;;;21.98;13.63;;;16.90;99.90;;;;;;4917444;29;20189;-82
2022/04/14 12:41:47;;;;;;;17.67;13.50;;;17.10;99.90;;;;;;4921494;29;20179;-81